RYR233 LICR-LFPG
Flight info
| Callsign | RYR233 |
|---|---|
| Flight time | 2h 15m |
| Altitude | 38000 |
| Route | RCA DCT DIRED DCT RIFFI DCT KARDU DCT DORAV DCT KUKEV DCT BANKO L615 DJL |
| Aircraft | B738/M-SDE2E3FGHIRWXY/LB1 |
Departure
| Time | 2026-05-08 20:01 |
|---|---|
| Airport | Reggio Calabria Airport (LICR) |
Arrival
| Time | 2026-05-08 22:17 |
|---|---|
| Airport | Charles de Gaulle International Airport (LFPG) |
| Time | Latitude | Longitude | Altitude | Speed | Heading |
|---|---|---|---|---|---|
| 2026-05-08 19:37 | 38.07410 | 15.65259 | 87 ft | 0 kts | 118° |
| 2026-05-08 19:53 | 38.07412 | 15.65253 | 87 ft | 2 kts | 112° |
| 2026-05-08 19:53 | 38.07413 | 15.65234 | 86 ft | 2 kts | 72° |
| 2026-05-08 19:53 | 38.07406 | 15.65216 | 86 ft | 2 kts | 75° |
| 2026-05-08 19:54 | 38.07406 | 15.65196 | 85 ft | 2 kts | 110° |
| 2026-05-08 19:54 | 38.07409 | 15.65188 | 85 ft | 1 kts | 123° |
| 2026-05-08 19:54 | 38.07410 | 15.65184 | 85 ft | 0 kts | 119° |
| 2026-05-08 19:57 | 38.07394 | 15.65208 | 85 ft | 6 kts | 141° |
| 2026-05-08 19:57 | 38.07345 | 15.65248 | 84 ft | 9 kts | 149° |
| 2026-05-08 19:57 | 38.07322 | 15.65214 | 82 ft | 8 kts | 266° |
| 2026-05-08 19:57 | 38.07287 | 15.65098 | 75 ft | 18 kts | 235° |
| 2026-05-08 19:58 | 38.07171 | 15.65120 | 67 ft | 20 kts | 155° |
| 2026-05-08 19:58 | 38.07034 | 15.65195 | 63 ft | 23 kts | 155° |
| 2026-05-08 19:58 | 38.06868 | 15.65319 | 58 ft | 32 kts | 153° |
| 2026-05-08 19:58 | 38.06663 | 15.65454 | 57 ft | 32 kts | 155° |
| 2026-05-08 19:59 | 38.06509 | 15.65587 | 64 ft | 21 kts | 118° |
| 2026-05-08 19:59 | 38.06460 | 15.65606 | 66 ft | 12 kts | 291° |
| 2026-05-08 19:59 | 38.06498 | 15.65561 | 63 ft | 0 kts | 332° |
| 2026-05-08 20:00 | 38.06517 | 15.65548 | 62 ft | 16 kts | 332° |
| 2026-05-08 20:00 | 38.06894 | 15.65307 | 59 ft | 102 kts | 332° |
| 2026-05-08 20:01 | 38.07733 | 15.64742 | 168 ft | 159 kts | 333° |
| 2026-05-08 20:01 | 38.08649 | 15.64086 | 1123 ft | 148 kts | 331° |
| 2026-05-08 20:01 | 38.09593 | 15.63377 | 1665 ft | 169 kts | 330° |
| 2026-05-08 20:01 | 38.10637 | 15.62590 | 2231 ft | 180 kts | 330° |
| 2026-05-08 20:02 | 38.11756 | 15.61759 | 2749 ft | 194 kts | 330° |
| 2026-05-08 20:02 | 38.12951 | 15.60874 | 3253 ft | 208 kts | 330° |
| 2026-05-08 20:02 | 38.14267 | 15.59897 | 3776 ft | 225 kts | 330° |
| 2026-05-08 20:02 | 38.15653 | 15.58865 | 4314 ft | 241 kts | 329° |
| 2026-05-08 20:03 | 38.17110 | 15.57780 | 5061 ft | 248 kts | 328° |
| 2026-05-08 20:03 | 38.18603 | 15.56669 | 5807 ft | 256 kts | 327° |
| 2026-05-08 20:03 | 38.20193 | 15.55482 | 6465 ft | 269 kts | 327° |
| 2026-05-08 20:03 | 38.21797 | 15.54290 | 7332 ft | 271 kts | 327° |
| 2026-05-08 20:04 | 38.23422 | 15.53081 | 8211 ft | 273 kts | 326° |
| 2026-05-08 20:04 | 38.25061 | 15.51861 | 9114 ft | 273 kts | 325° |
| 2026-05-08 20:04 | 38.26671 | 15.50660 | 9976 ft | 273 kts | 324° |
| 2026-05-08 20:04 | 38.28325 | 15.49422 | 10675 ft | 280 kts | 324° |
| 2026-05-08 20:05 | 38.30045 | 15.48128 | 11151 ft | 294 kts | 324° |
| 2026-05-08 20:05 | 38.31834 | 15.46784 | 11631 ft | 308 kts | 324° |
| 2026-05-08 20:05 | 38.33744 | 15.45349 | 12046 ft | 323 kts | 324° |
| 2026-05-08 20:05 | 38.35677 | 15.43903 | 12665 ft | 329 kts | 324° |
| 2026-05-08 20:06 | 38.37669 | 15.42417 | 13379 ft | 333 kts | 324° |
| 2026-05-08 20:06 | 38.39681 | 15.40917 | 14113 ft | 335 kts | 324° |
| 2026-05-08 20:06 | 38.41672 | 15.39430 | 14844 ft | 337 kts | 324° |
| 2026-05-08 20:06 | 38.43710 | 15.37901 | 15507 ft | 341 kts | 324° |
| 2026-05-08 20:07 | 38.45741 | 15.36375 | 16175 ft | 344 kts | 324° |
| 2026-05-08 20:07 | 38.47823 | 15.34811 | 16875 ft | 346 kts | 323° |
| 2026-05-08 20:07 | 38.49910 | 15.33243 | 17540 ft | 349 kts | 323° |
| 2026-05-08 20:07 | 38.51996 | 15.31673 | 18159 ft | 353 kts | 323° |
| 2026-05-08 20:08 | 38.54112 | 15.30079 | 18795 ft | 355 kts | 323° |
| 2026-05-08 20:08 | 38.56241 | 15.28475 | 19410 ft | 359 kts | 323° |
| 2026-05-08 20:08 | 38.58399 | 15.26850 | 20042 ft | 362 kts | 323° |
| 2026-05-08 20:08 | 38.60560 | 15.25223 | 20699 ft | 364 kts | 323° |
| 2026-05-08 20:09 | 38.62749 | 15.23572 | 21207 ft | 369 kts | 323° |
| 2026-05-08 20:09 | 38.64976 | 15.21893 | 21872 ft | 370 kts | 323° |
| 2026-05-08 20:09 | 38.67172 | 15.20234 | 22408 ft | 373 kts | 322° |
| 2026-05-08 20:09 | 38.69420 | 15.18535 | 22931 ft | 377 kts | 322° |
| 2026-05-08 20:10 | 38.71696 | 15.16811 | 23393 ft | 382 kts | 323° |
| 2026-05-08 20:10 | 38.73990 | 15.15075 | 23998 ft | 383 kts | 323° |
| 2026-05-08 20:10 | 38.76273 | 15.13347 | 24464 ft | 387 kts | 322° |
| 2026-05-08 20:10 | 38.78603 | 15.11578 | 24969 ft | 390 kts | 322° |
| 2026-05-08 20:11 | 38.80958 | 15.09791 | 25394 ft | 394 kts | 322° |
| 2026-05-08 20:11 | 38.83319 | 15.07997 | 25860 ft | 397 kts | 322° |
| 2026-05-08 20:11 | 38.85705 | 15.06184 | 26348 ft | 400 kts | 322° |
| 2026-05-08 20:11 | 38.88090 | 15.04371 | 26817 ft | 402 kts | 322° |
| 2026-05-08 20:12 | 38.90493 | 15.02544 | 27284 ft | 405 kts | 322° |
| 2026-05-08 20:12 | 38.92942 | 15.00680 | 27656 ft | 409 kts | 322° |
| 2026-05-08 20:12 | 38.95387 | 14.98815 | 28046 ft | 412 kts | 322° |
| 2026-05-08 20:12 | 38.97839 | 14.96944 | 28487 ft | 414 kts | 322° |
| 2026-05-08 20:13 | 39.00333 | 14.95041 | 28859 ft | 418 kts | 322° |
| 2026-05-08 20:13 | 39.02829 | 14.93134 | 29260 ft | 420 kts | 322° |
| 2026-05-08 20:13 | 39.05344 | 14.91214 | 29654 ft | 423 kts | 322° |
| 2026-05-08 20:13 | 39.07919 | 14.89244 | 29993 ft | 426 kts | 322° |
| 2026-05-08 20:14 | 39.10468 | 14.87292 | 30429 ft | 427 kts | 322° |
| 2026-05-08 20:14 | 39.13041 | 14.85322 | 30784 ft | 429 kts | 322° |
| 2026-05-08 20:14 | 39.15639 | 14.83331 | 31219 ft | 430 kts | 322° |
| 2026-05-08 20:14 | 39.18229 | 14.81343 | 31599 ft | 431 kts | 322° |
| 2026-05-08 20:15 | 39.20774 | 14.79387 | 31907 ft | 433 kts | 322° |
| 2026-05-08 20:15 | 39.23375 | 14.77386 | 32227 ft | 436 kts | 322° |
| 2026-05-08 20:15 | 39.25979 | 14.75382 | 32609 ft | 436 kts | 322° |
| 2026-05-08 20:15 | 39.28579 | 14.73383 | 33261 ft | 429 kts | 322° |
| 2026-05-08 20:16 | 39.31094 | 14.71451 | 33839 ft | 425 kts | 322° |
| 2026-05-08 20:16 | 39.33646 | 14.69483 | 34247 ft | 424 kts | 322° |
| 2026-05-08 20:16 | 39.36173 | 14.67530 | 34665 ft | 422 kts | 322° |
| 2026-05-08 20:16 | 39.38670 | 14.65597 | 35120 ft | 420 kts | 322° |
| 2026-05-08 20:17 | 39.41182 | 14.63649 | 35475 ft | 420 kts | 321° |
| 2026-05-08 20:17 | 39.43677 | 14.61713 | 35858 ft | 418 kts | 322° |
| 2026-05-08 20:17 | 39.46154 | 14.59791 | 36256 ft | 417 kts | 321° |
| 2026-05-08 20:17 | 39.48624 | 14.57871 | 36558 ft | 416 kts | 321° |
| 2026-05-08 20:18 | 39.51129 | 14.55921 | 36871 ft | 416 kts | 322° |
| 2026-05-08 20:18 | 39.53588 | 14.54003 | 37145 ft | 415 kts | 321° |
| 2026-05-08 20:18 | 39.55988 | 14.51967 | 37378 ft | 411 kts | 317° |
| 2026-05-08 20:18 | 39.58213 | 14.49720 | 37619 ft | 407 kts | 314° |
| 2026-05-08 20:19 | 39.60354 | 14.47320 | 37836 ft | 405 kts | 311° |
| 2026-05-08 20:19 | 39.62442 | 14.44875 | 38012 ft | 405 kts | 311° |
| 2026-05-08 20:19 | 39.66629 | 14.39907 | 38023 ft | 410 kts | 311° |
| 2026-05-08 20:20 | 39.70863 | 14.34924 | 38021 ft | 413 kts | 311° |
| 2026-05-08 20:20 | 39.75149 | 14.29918 | 38022 ft | 416 kts | 311° |
| 2026-05-08 20:21 | 39.79473 | 14.24879 | 38025 ft | 419 kts | 311° |
| 2026-05-08 20:21 | 39.83798 | 14.19839 | 38026 ft | 419 kts | 311° |
| 2026-05-08 20:22 | 39.88154 | 14.14752 | 38025 ft | 420 kts | 311° |
| 2026-05-08 20:22 | 39.92496 | 14.09672 | 38026 ft | 421 kts | 311° |
| 2026-05-08 20:23 | 39.96838 | 14.04584 | 38024 ft | 420 kts | 311° |
| 2026-05-08 20:23 | 40.01178 | 13.99486 | 38026 ft | 422 kts | 311° |
| 2026-05-08 20:24 | 40.05528 | 13.94369 | 38026 ft | 422 kts | 311° |
| 2026-05-08 20:24 | 40.07684 | 13.91828 | 37884 ft | 421 kts | 311° |
| 2026-05-08 20:24 | 40.09849 | 13.89276 | 38044 ft | 423 kts | 311° |
| 2026-05-08 20:25 | 40.14207 | 13.84132 | 37898 ft | 421 kts | 311° |
| 2026-05-08 20:25 | 40.16375 | 13.81571 | 38041 ft | 419 kts | 311° |
| 2026-05-08 20:25 | 40.18550 | 13.78997 | 38037 ft | 421 kts | 311° |
| 2026-05-08 20:26 | 40.22917 | 13.73818 | 38051 ft | 424 kts | 311° |
| 2026-05-08 20:26 | 40.27266 | 13.68652 | 38048 ft | 424 kts | 311° |
| 2026-05-08 20:27 | 40.31628 | 13.63467 | 38054 ft | 422 kts | 311° |
| 2026-05-08 20:27 | 40.35965 | 13.58299 | 38048 ft | 425 kts | 311° |
| 2026-05-08 20:28 | 40.40319 | 13.53103 | 38051 ft | 425 kts | 311° |
| 2026-05-08 20:28 | 40.44690 | 13.47878 | 38048 ft | 426 kts | 311° |
| 2026-05-08 20:29 | 40.49080 | 13.42619 | 38047 ft | 426 kts | 311° |
| 2026-05-08 20:29 | 40.53458 | 13.37364 | 38052 ft | 426 kts | 311° |
| 2026-05-08 20:30 | 40.57827 | 13.32112 | 38050 ft | 425 kts | 311° |
| 2026-05-08 20:30 | 40.62191 | 13.26853 | 38048 ft | 427 kts | 311° |
| 2026-05-08 20:31 | 40.66555 | 13.21586 | 38052 ft | 427 kts | 311° |
| 2026-05-08 20:31 | 40.70958 | 13.16263 | 38052 ft | 429 kts | 311° |
| 2026-05-08 20:32 | 40.75350 | 13.10943 | 38048 ft | 430 kts | 311° |
| 2026-05-08 20:32 | 40.79754 | 13.05599 | 38046 ft | 432 kts | 311° |
| 2026-05-08 20:33 | 40.84194 | 13.00199 | 38047 ft | 430 kts | 311° |
| 2026-05-08 20:33 | 40.88598 | 12.94837 | 38049 ft | 431 kts | 311° |
| 2026-05-08 20:34 | 40.92988 | 12.89480 | 38049 ft | 431 kts | 311° |
| 2026-05-08 20:35 | 40.99602 | 12.81387 | 38049 ft | 432 kts | 311° |
| 2026-05-08 20:35 | 41.04003 | 12.75989 | 38050 ft | 432 kts | 311° |
| 2026-05-08 20:36 | 41.08421 | 12.70560 | 38051 ft | 434 kts | 311° |
| 2026-05-08 20:36 | 41.12846 | 12.65114 | 38050 ft | 433 kts | 311° |
| 2026-05-08 20:37 | 41.17260 | 12.59670 | 38047 ft | 434 kts | 311° |
| 2026-05-08 20:37 | 41.21697 | 12.54190 | 38051 ft | 433 kts | 311° |
| 2026-05-08 20:38 | 41.26196 | 12.48863 | 38048 ft | 436 kts | 314° |
| 2026-05-08 20:38 | 41.30862 | 12.43719 | 38051 ft | 437 kts | 315° |
| 2026-05-08 20:39 | 41.35554 | 12.38580 | 38050 ft | 439 kts | 315° |
| 2026-05-08 20:39 | 41.40264 | 12.33380 | 38047 ft | 438 kts | 314° |
| 2026-05-08 20:40 | 41.44922 | 12.28199 | 38049 ft | 437 kts | 314° |
| 2026-05-08 20:40 | 41.49583 | 12.22987 | 38045 ft | 438 kts | 314° |
| 2026-05-08 20:41 | 41.54239 | 12.17760 | 38046 ft | 438 kts | 314° |
| 2026-05-08 20:41 | 41.58899 | 12.12517 | 38047 ft | 437 kts | 314° |
| 2026-05-08 20:42 | 41.63560 | 12.07261 | 38047 ft | 439 kts | 315° |
| 2026-05-08 20:42 | 41.68211 | 12.02006 | 38048 ft | 440 kts | 315° |
| 2026-05-08 20:43 | 41.72867 | 11.96736 | 38049 ft | 440 kts | 315° |
| 2026-05-08 20:43 | 41.77543 | 11.91434 | 38049 ft | 441 kts | 315° |
| 2026-05-08 20:44 | 41.82241 | 11.86095 | 38046 ft | 440 kts | 315° |
| 2026-05-08 20:44 | 41.86882 | 11.80813 | 38048 ft | 441 kts | 315° |
| 2026-05-08 20:45 | 41.91580 | 11.75453 | 38044 ft | 442 kts | 315° |
| 2026-05-08 20:45 | 41.96251 | 11.70114 | 38043 ft | 444 kts | 315° |
| 2026-05-08 20:46 | 42.00948 | 11.64735 | 38045 ft | 443 kts | 315° |
| 2026-05-08 20:46 | 42.05627 | 11.59366 | 38038 ft | 443 kts | 315° |
| 2026-05-08 20:47 | 42.10334 | 11.53954 | 38043 ft | 444 kts | 315° |
| 2026-05-08 20:47 | 42.15063 | 11.48505 | 38038 ft | 444 kts | 315° |
| 2026-05-08 20:48 | 42.19752 | 11.43090 | 38035 ft | 442 kts | 315° |
| 2026-05-08 20:48 | 42.24406 | 11.37706 | 38036 ft | 442 kts | 315° |
| 2026-05-08 20:49 | 42.29089 | 11.32275 | 38039 ft | 443 kts | 315° |
| 2026-05-08 20:49 | 42.33754 | 11.26857 | 38045 ft | 443 kts | 315° |
| 2026-05-08 20:50 | 42.38414 | 11.21434 | 38038 ft | 444 kts | 315° |
| 2026-05-08 20:50 | 42.43103 | 11.15965 | 38040 ft | 443 kts | 315° |
| 2026-05-08 20:51 | 42.47750 | 11.10534 | 38039 ft | 443 kts | 315° |
| 2026-05-08 20:51 | 42.52381 | 11.05111 | 38038 ft | 441 kts | 315° |
| 2026-05-08 20:52 | 42.57037 | 10.99647 | 38041 ft | 443 kts | 315° |
| 2026-05-08 20:52 | 42.61691 | 10.94174 | 38043 ft | 443 kts | 315° |
| 2026-05-08 20:53 | 42.66357 | 10.88677 | 38042 ft | 444 kts | 315° |
| 2026-05-08 20:53 | 42.71040 | 10.83146 | 38039 ft | 444 kts | 315° |
| 2026-05-08 20:54 | 42.75682 | 10.77655 | 38047 ft | 444 kts | 315° |
| 2026-05-08 20:54 | 42.80358 | 10.72111 | 38046 ft | 444 kts | 315° |
| 2026-05-08 20:55 | 42.84994 | 10.66604 | 38050 ft | 444 kts | 315° |
| 2026-05-08 20:55 | 42.89633 | 10.61081 | 38044 ft | 444 kts | 315° |
| 2026-05-08 20:56 | 42.94281 | 10.55535 | 38047 ft | 445 kts | 315° |
| 2026-05-08 20:56 | 42.98952 | 10.49952 | 38045 ft | 445 kts | 315° |
| 2026-05-08 20:57 | 43.03581 | 10.44416 | 38051 ft | 444 kts | 315° |
| 2026-05-08 20:57 | 43.08221 | 10.38859 | 38056 ft | 443 kts | 315° |
| 2026-05-08 20:58 | 43.12860 | 10.33290 | 38056 ft | 444 kts | 315° |
| 2026-05-08 20:58 | 43.17507 | 10.27697 | 38047 ft | 443 kts | 315° |
| 2026-05-08 20:59 | 43.22124 | 10.22130 | 38054 ft | 443 kts | 315° |
| 2026-05-08 20:59 | 43.26761 | 10.16527 | 38056 ft | 444 kts | 315° |
| 2026-05-08 21:00 | 43.31370 | 10.10947 | 38051 ft | 443 kts | 315° |
| 2026-05-08 21:00 | 43.35992 | 10.05337 | 38058 ft | 444 kts | 315° |
| 2026-05-08 21:01 | 43.40614 | 9.99719 | 38049 ft | 443 kts | 315° |
| 2026-05-08 21:01 | 43.45228 | 9.94095 | 38047 ft | 444 kts | 315° |
| 2026-05-08 21:02 | 43.49871 | 9.88425 | 38056 ft | 444 kts | 315° |
| 2026-05-08 21:02 | 43.54456 | 9.82813 | 38062 ft | 444 kts | 315° |
| 2026-05-08 21:03 | 43.59065 | 9.77163 | 38070 ft | 443 kts | 315° |
| 2026-05-08 21:03 | 43.63670 | 9.71504 | 38071 ft | 444 kts | 314° |
| 2026-05-08 21:04 | 43.68277 | 9.65828 | 38065 ft | 443 kts | 314° |
| 2026-05-08 21:04 | 43.72878 | 9.60150 | 38068 ft | 443 kts | 315° |
| 2026-05-08 21:05 | 43.77473 | 9.54465 | 38062 ft | 444 kts | 315° |
| 2026-05-08 21:05 | 43.82055 | 9.48786 | 38058 ft | 443 kts | 315° |
| 2026-05-08 21:06 | 43.86619 | 9.43116 | 38061 ft | 443 kts | 315° |
| 2026-05-08 21:06 | 43.91209 | 9.37403 | 38062 ft | 443 kts | 314° |
| 2026-05-08 21:07 | 43.95818 | 9.31652 | 38055 ft | 442 kts | 314° |
| 2026-05-08 21:07 | 44.00384 | 9.25944 | 38054 ft | 443 kts | 314° |
| 2026-05-08 21:08 | 44.04953 | 9.20218 | 38054 ft | 444 kts | 314° |
| 2026-05-08 21:08 | 44.09545 | 9.14453 | 38050 ft | 443 kts | 314° |
| 2026-05-08 21:09 | 44.14119 | 9.08696 | 38052 ft | 443 kts | 314° |
| 2026-05-08 21:09 | 44.18715 | 9.02900 | 38051 ft | 444 kts | 314° |
| 2026-05-08 21:10 | 44.23303 | 8.97100 | 38055 ft | 445 kts | 314° |
| 2026-05-08 21:10 | 44.27886 | 8.91295 | 38056 ft | 445 kts | 314° |
| 2026-05-08 21:11 | 44.32456 | 8.85495 | 38062 ft | 445 kts | 314° |
| 2026-05-08 21:11 | 44.37113 | 8.79745 | 38068 ft | 445 kts | 315° |
| 2026-05-08 21:12 | 44.41835 | 8.74089 | 38072 ft | 446 kts | 316° |
| 2026-05-08 21:12 | 44.46550 | 8.68450 | 38076 ft | 446 kts | 315° |
| 2026-05-08 21:13 | 44.51244 | 8.62803 | 38081 ft | 446 kts | 315° |
| 2026-05-08 21:13 | 44.55969 | 8.57088 | 38076 ft | 447 kts | 315° |
| 2026-05-08 21:14 | 44.60679 | 8.51367 | 38072 ft | 448 kts | 315° |
| 2026-05-08 21:14 | 44.65401 | 8.45618 | 38069 ft | 447 kts | 315° |
| 2026-05-08 21:15 | 44.70118 | 8.39860 | 38072 ft | 448 kts | 315° |
| 2026-05-08 21:15 | 44.74822 | 8.34104 | 38072 ft | 448 kts | 315° |
| 2026-05-08 21:16 | 44.79523 | 8.28340 | 38071 ft | 449 kts | 315° |
| 2026-05-08 21:16 | 44.84243 | 8.22537 | 38073 ft | 449 kts | 315° |
| 2026-05-08 21:17 | 44.88952 | 8.16738 | 38073 ft | 448 kts | 315° |
| 2026-05-08 21:17 | 44.93643 | 8.10947 | 38074 ft | 449 kts | 315° |
| 2026-05-08 21:18 | 44.98320 | 8.05159 | 38075 ft | 448 kts | 315° |
| 2026-05-08 21:18 | 45.02990 | 7.99368 | 38076 ft | 448 kts | 315° |
| 2026-05-08 21:19 | 45.07684 | 7.93534 | 38084 ft | 448 kts | 315° |
| 2026-05-08 21:19 | 45.12396 | 7.87662 | 38087 ft | 449 kts | 315° |
| 2026-05-08 21:20 | 45.17092 | 7.81799 | 38089 ft | 449 kts | 315° |
| 2026-05-08 21:20 | 45.21787 | 7.75923 | 38091 ft | 449 kts | 315° |
| 2026-05-08 21:21 | 45.26458 | 7.70064 | 38093 ft | 449 kts | 315° |
| 2026-05-08 21:21 | 45.31143 | 7.64175 | 38100 ft | 449 kts | 315° |
| 2026-05-08 21:22 | 45.35818 | 7.58283 | 38123 ft | 449 kts | 315° |
| 2026-05-08 21:22 | 45.40495 | 7.52376 | 38131 ft | 449 kts | 315° |
| 2026-05-08 21:23 | 45.45151 | 7.46482 | 38165 ft | 448 kts | 315° |
| 2026-05-08 21:23 | 45.49829 | 7.40546 | 38159 ft | 449 kts | 315° |
| 2026-05-08 21:24 | 45.54498 | 7.34608 | 38130 ft | 448 kts | 314° |
| 2026-05-08 21:24 | 45.59167 | 7.28655 | 38139 ft | 450 kts | 314° |
| 2026-05-08 21:25 | 45.63861 | 7.22718 | 38134 ft | 450 kts | 316° |
| 2026-05-08 21:25 | 45.68932 | 7.17331 | 38130 ft | 453 kts | 322° |
| 2026-05-08 21:26 | 45.74212 | 7.12436 | 38146 ft | 452 kts | 324° |
| 2026-05-08 21:26 | 45.79551 | 7.07620 | 38134 ft | 453 kts | 324° |
| 2026-05-08 21:27 | 45.84877 | 7.02790 | 38126 ft | 453 kts | 323° |
| 2026-05-08 21:27 | 45.90162 | 6.97945 | 38131 ft | 453 kts | 323° |
| 2026-05-08 21:28 | 45.95476 | 6.93039 | 38140 ft | 452 kts | 323° |
| 2026-05-08 21:28 | 46.00740 | 6.88157 | 38127 ft | 453 kts | 323° |
| 2026-05-08 21:29 | 46.06063 | 6.83202 | 38115 ft | 453 kts | 323° |
| 2026-05-08 21:29 | 46.11352 | 6.78268 | 38117 ft | 451 kts | 323° |
| 2026-05-08 21:30 | 46.16665 | 6.73299 | 38132 ft | 452 kts | 323° |
| 2026-05-08 21:30 | 46.21941 | 6.68354 | 38133 ft | 453 kts | 323° |
| 2026-05-08 21:31 | 46.27213 | 6.63406 | 38149 ft | 451 kts | 323° |
| 2026-05-08 21:31 | 46.32494 | 6.58435 | 38136 ft | 451 kts | 323° |
| 2026-05-08 21:32 | 46.37765 | 6.53458 | 38111 ft | 451 kts | 323° |
| 2026-05-08 21:32 | 46.42966 | 6.48363 | 38081 ft | 449 kts | 321° |
| 2026-05-08 21:33 | 46.47779 | 6.42636 | 38075 ft | 446 kts | 314° |
| 2026-05-08 21:33 | 46.52089 | 6.36202 | 38076 ft | 445 kts | 310° |
| 2026-05-08 21:34 | 46.56205 | 6.29502 | 38091 ft | 443 kts | 308° |
| 2026-05-08 21:34 | 46.60259 | 6.22750 | 38102 ft | 444 kts | 308° |
| 2026-05-08 21:35 | 46.64315 | 6.15968 | 38090 ft | 443 kts | 308° |
| 2026-05-08 21:35 | 46.68375 | 6.09181 | 38095 ft | 443 kts | 308° |
| 2026-05-08 21:36 | 46.72448 | 6.02407 | 38073 ft | 443 kts | 308° |
| 2026-05-08 21:36 | 46.76505 | 5.95634 | 38064 ft | 443 kts | 308° |
| 2026-05-08 21:37 | 46.80561 | 5.88815 | 38053 ft | 443 kts | 308° |
| 2026-05-08 21:37 | 46.84611 | 5.81986 | 38064 ft | 442 kts | 308° |
| 2026-05-08 21:38 | 46.88657 | 5.75149 | 38048 ft | 444 kts | 308° |
| 2026-05-08 21:38 | 46.92706 | 5.68325 | 38055 ft | 442 kts | 308° |
| 2026-05-08 21:39 | 46.96750 | 5.61507 | 38047 ft | 444 kts | 309° |
| 2026-05-08 21:39 | 47.00793 | 5.54672 | 38041 ft | 442 kts | 309° |
| 2026-05-08 21:40 | 47.04811 | 5.47859 | 38053 ft | 443 kts | 309° |
| 2026-05-08 21:40 | 47.08825 | 5.41034 | 38055 ft | 443 kts | 308° |
| 2026-05-08 21:41 | 47.14861 | 5.30739 | 38052 ft | 441 kts | 308° |
| 2026-05-08 21:41 | 47.18864 | 5.23887 | 38046 ft | 441 kts | 308° |
| 2026-05-08 21:42 | 47.22853 | 5.17044 | 38049 ft | 441 kts | 308° |
| 2026-05-08 21:42 | 47.26969 | 5.10313 | 38059 ft | 442 kts | 313° |
| 2026-05-08 21:43 | 47.31651 | 5.04335 | 38051 ft | 445 kts | 319° |
| 2026-05-08 21:43 | 47.36536 | 4.98803 | 38062 ft | 445 kts | 320° |
| 2026-05-08 21:44 | 47.41490 | 4.93289 | 38055 ft | 446 kts | 320° |
| 2026-05-08 21:44 | 47.46456 | 4.87720 | 38054 ft | 446 kts | 320° |
| 2026-05-08 21:45 | 47.51363 | 4.82165 | 38057 ft | 445 kts | 320° |
| 2026-05-08 21:45 | 47.56263 | 4.76576 | 38051 ft | 445 kts | 320° |
| 2026-05-08 21:46 | 47.61187 | 4.70935 | 38053 ft | 445 kts | 320° |
| 2026-05-08 21:46 | 47.66060 | 4.65336 | 38073 ft | 444 kts | 320° |
| 2026-05-08 21:47 | 47.70947 | 4.59703 | 38059 ft | 447 kts | 320° |
| 2026-05-08 21:47 | 47.75852 | 4.54038 | 38062 ft | 444 kts | 320° |
| 2026-05-08 21:48 | 47.80736 | 4.48384 | 38061 ft | 443 kts | 320° |
| 2026-05-08 21:48 | 47.85614 | 4.42721 | 38053 ft | 444 kts | 320° |
| 2026-05-08 21:49 | 47.90495 | 4.37040 | 38062 ft | 443 kts | 320° |
| 2026-05-08 21:49 | 47.95343 | 4.31385 | 38059 ft | 443 kts | 319° |
| 2026-05-08 21:50 | 48.00218 | 4.25686 | 38052 ft | 442 kts | 319° |
| 2026-05-08 21:50 | 48.05046 | 4.20027 | 38051 ft | 442 kts | 319° |
| 2026-05-08 21:51 | 48.09894 | 4.14330 | 38056 ft | 442 kts | 319° |
| 2026-05-08 21:51 | 48.14722 | 4.08644 | 38053 ft | 443 kts | 319° |
| 2026-05-08 21:52 | 48.19581 | 4.02908 | 38055 ft | 441 kts | 319° |
| 2026-05-08 21:52 | 48.24509 | 3.97415 | 38052 ft | 444 kts | 324° |
| 2026-05-08 21:53 | 48.27093 | 3.94968 | 37825 ft | 438 kts | 326° |
| 2026-05-08 21:53 | 48.29731 | 3.92661 | 36854 ft | 436 kts | 328° |
| 2026-05-08 21:53 | 48.32354 | 3.90469 | 35163 ft | 448 kts | 329° |
| 2026-05-08 21:53 | 48.35067 | 3.88266 | 33501 ft | 449 kts | 330° |
| 2026-05-08 21:54 | 48.37833 | 3.86053 | 32101 ft | 444 kts | 331° |
| 2026-05-08 21:54 | 48.40533 | 3.83905 | 30958 ft | 437 kts | 331° |
| 2026-05-08 21:54 | 48.43180 | 3.81797 | 29950 ft | 427 kts | 332° |
| 2026-05-08 21:54 | 48.45770 | 3.79732 | 29003 ft | 418 kts | 332° |
| 2026-05-08 21:55 | 48.48294 | 3.77713 | 28094 ft | 408 kts | 331° |
| 2026-05-08 21:55 | 48.50736 | 3.75638 | 27234 ft | 398 kts | 328° |
| 2026-05-08 21:55 | 48.52965 | 3.73264 | 26403 ft | 389 kts | 320° |
| 2026-05-08 21:56 | 48.56454 | 3.67334 | 24924 ft | 370 kts | 306° |
| 2026-05-08 21:56 | 48.57870 | 3.64208 | 24314 ft | 359 kts | 304° |
| 2026-05-08 21:56 | 48.59214 | 3.61079 | 23551 ft | 354 kts | 303° |
| 2026-05-08 21:56 | 48.60517 | 3.57984 | 22733 ft | 352 kts | 303° |
| 2026-05-08 21:57 | 48.61823 | 3.54876 | 21874 ft | 351 kts | 303° |
| 2026-05-08 21:57 | 48.63129 | 3.51782 | 21100 ft | 347 kts | 302° |
| 2026-05-08 21:57 | 48.64413 | 3.48753 | 20336 ft | 343 kts | 302° |
| 2026-05-08 21:57 | 48.65696 | 3.45735 | 19495 ft | 341 kts | 302° |
| 2026-05-08 21:58 | 48.66976 | 3.42728 | 18682 ft | 339 kts | 302° |
| 2026-05-08 21:58 | 48.68241 | 3.39756 | 17836 ft | 337 kts | 302° |
| 2026-05-08 21:58 | 48.69493 | 3.36809 | 16991 ft | 335 kts | 302° |
| 2026-05-08 21:58 | 48.70743 | 3.33867 | 16136 ft | 333 kts | 301° |
| 2026-05-08 21:59 | 48.71997 | 3.30911 | 15277 ft | 332 kts | 301° |
| 2026-05-08 21:59 | 48.73228 | 3.28011 | 14430 ft | 330 kts | 301° |
| 2026-05-08 21:59 | 48.74465 | 3.25096 | 13547 ft | 330 kts | 301° |
| 2026-05-08 21:59 | 48.75705 | 3.22170 | 12633 ft | 330 kts | 301° |
| 2026-05-08 22:00 | 48.76947 | 3.19235 | 11727 ft | 329 kts | 301° |
| 2026-05-08 22:00 | 48.78155 | 3.16379 | 10842 ft | 327 kts | 301° |
| 2026-05-08 22:00 | 48.79387 | 3.13463 | 9930 ft | 326 kts | 301° |
| 2026-05-08 22:00 | 48.80591 | 3.10608 | 9034 ft | 324 kts | 301° |
| 2026-05-08 22:01 | 48.81796 | 3.07744 | 8128 ft | 323 kts | 302° |
| 2026-05-08 22:01 | 48.83008 | 3.04862 | 7269 ft | 325 kts | 302° |
| 2026-05-08 22:01 | 48.84226 | 3.02008 | 7002 ft | 314 kts | 304° |
| 2026-05-08 22:01 | 48.85527 | 2.99454 | 7115 ft | 292 kts | 310° |
| 2026-05-08 22:02 | 48.86840 | 2.97247 | 7124 ft | 277 kts | 313° |
| 2026-05-08 22:02 | 48.88151 | 2.95160 | 7131 ft | 265 kts | 313° |
| 2026-05-08 22:02 | 48.89416 | 2.93139 | 7133 ft | 267 kts | 313° |
| 2026-05-08 22:02 | 48.90690 | 2.91063 | 7130 ft | 267 kts | 312° |
| 2026-05-08 22:03 | 48.91949 | 2.88983 | 7131 ft | 266 kts | 312° |
| 2026-05-08 22:03 | 48.93203 | 2.86898 | 7130 ft | 266 kts | 312° |
| 2026-05-08 22:03 | 48.94472 | 2.84810 | 7127 ft | 268 kts | 313° |
| 2026-05-08 22:03 | 48.95759 | 2.82771 | 7119 ft | 267 kts | 314° |
| 2026-05-08 22:04 | 48.96886 | 2.80548 | 7122 ft | 267 kts | 295° |
| 2026-05-08 22:04 | 48.97311 | 2.77815 | 7125 ft | 267 kts | 270° |
| 2026-05-08 22:04 | 48.97186 | 2.75026 | 7174 ft | 265 kts | 263° |
| 2026-05-08 22:04 | 48.96961 | 2.72237 | 7240 ft | 266 kts | 263° |
| 2026-05-08 22:05 | 48.96715 | 2.69427 | 7103 ft | 266 kts | 262° |
| 2026-05-08 22:05 | 48.96465 | 2.66651 | 7059 ft | 265 kts | 262° |
| 2026-05-08 22:05 | 48.96216 | 2.63870 | 7050 ft | 264 kts | 262° |
| 2026-05-08 22:05 | 48.95974 | 2.61119 | 7053 ft | 261 kts | 262° |
| 2026-05-08 22:06 | 48.95734 | 2.58345 | 7055 ft | 262 kts | 262° |
| 2026-05-08 22:06 | 48.95495 | 2.55589 | 7056 ft | 263 kts | 262° |
| 2026-05-08 22:06 | 48.95255 | 2.52822 | 7057 ft | 268 kts | 262° |
| 2026-05-08 22:06 | 48.95010 | 2.50013 | 7053 ft | 267 kts | 262° |
| 2026-05-08 22:07 | 48.94763 | 2.47195 | 7052 ft | 268 kts | 262° |
| 2026-05-08 22:07 | 48.94515 | 2.44391 | 7050 ft | 268 kts | 262° |
| 2026-05-08 22:07 | 48.94260 | 2.41570 | 7052 ft | 267 kts | 262° |
| 2026-05-08 22:07 | 48.93999 | 2.38740 | 7055 ft | 269 kts | 262° |
| 2026-05-08 22:08 | 48.93737 | 2.35954 | 7057 ft | 268 kts | 262° |
| 2026-05-08 22:08 | 48.93473 | 2.33136 | 7054 ft | 269 kts | 262° |
| 2026-05-08 22:08 | 48.93208 | 2.30299 | 7055 ft | 268 kts | 262° |
| 2026-05-08 22:08 | 48.92951 | 2.27493 | 7052 ft | 269 kts | 262° |
| 2026-05-08 22:09 | 48.92698 | 2.24700 | 7061 ft | 269 kts | 262° |
| 2026-05-08 22:09 | 48.92440 | 2.21876 | 7052 ft | 269 kts | 262° |
| 2026-05-08 22:09 | 48.92183 | 2.19074 | 6888 ft | 265 kts | 262° |
| 2026-05-08 22:09 | 48.92209 | 2.16280 | 6387 ft | 271 kts | 284° |
| 2026-05-08 22:10 | 48.92951 | 2.13696 | 6201 ft | 261 kts | 305° |
| 2026-05-08 22:10 | 48.94210 | 2.11871 | 6023 ft | 250 kts | 331° |
| 2026-05-08 22:10 | 48.95857 | 2.11076 | 5573 ft | 250 kts | 355° |
| 2026-05-08 22:10 | 48.97593 | 2.11180 | 5092 ft | 250 kts | 12° |
| 2026-05-08 22:11 | 48.99147 | 2.12189 | 4870 ft | 238 kts | 38° |
| 2026-05-08 22:11 | 49.00225 | 2.13981 | 4874 ft | 220 kts | 58° |
| 2026-05-08 22:11 | 49.00867 | 2.15988 | 4868 ft | 204 kts | 73° |
| 2026-05-08 22:11 | 49.00954 | 2.18029 | 4858 ft | 190 kts | 99° |
| 2026-05-08 22:12 | 49.00734 | 2.20008 | 4615 ft | 189 kts | 94° |
| 2026-05-08 22:12 | 49.00758 | 2.22022 | 4331 ft | 191 kts | 85° |
| 2026-05-08 22:12 | 49.00877 | 2.24020 | 4089 ft | 190 kts | 85° |
| 2026-05-08 22:12 | 49.00992 | 2.26008 | 3883 ft | 188 kts | 85° |
| 2026-05-08 22:13 | 49.01105 | 2.28016 | 3614 ft | 191 kts | 85° |
| 2026-05-08 22:13 | 49.01220 | 2.30035 | 3344 ft | 191 kts | 85° |
| 2026-05-08 22:13 | 49.01333 | 2.32038 | 3088 ft | 190 kts | 85° |
| 2026-05-08 22:13 | 49.01446 | 2.34039 | 2812 ft | 189 kts | 85° |
| 2026-05-08 22:14 | 49.01556 | 2.36003 | 2553 ft | 186 kts | 84° |
| 2026-05-08 22:14 | 49.01667 | 2.37965 | 2293 ft | 183 kts | 85° |
| 2026-05-08 22:14 | 49.01774 | 2.39883 | 2045 ft | 183 kts | 85° |
| 2026-05-08 22:14 | 49.01881 | 2.41820 | 1791 ft | 181 kts | 85° |
| 2026-05-08 22:15 | 49.01986 | 2.43706 | 1564 ft | 175 kts | 84° |
| 2026-05-08 22:15 | 49.02090 | 2.45557 | 1308 ft | 174 kts | 84° |
| 2026-05-08 22:15 | 49.02185 | 2.47320 | 1078 ft | 159 kts | 84° |
| 2026-05-08 22:15 | 49.02274 | 2.48934 | 890 ft | 149 kts | 84° |
| 2026-05-08 22:16 | 49.02353 | 2.50457 | 770 ft | 140 kts | 84° |
| 2026-05-08 22:16 | 49.02443 | 2.51965 | 605 ft | 145 kts | 82° |
| 2026-05-08 22:16 | 49.02522 | 2.53452 | 405 ft | 132 kts | 84° |
| 2026-05-08 22:16 | 49.02585 | 2.54572 | 385 ft | 67 kts | 88° |
| 2026-05-08 22:17 | 49.02607 | 2.54986 | 385 ft | 30 kts | 86° |
| 2026-05-08 22:17 | 49.02567 | 2.55244 | 386 ft | 18 kts | 106° |
| 2026-05-08 22:17 | 49.02531 | 2.55425 | 387 ft | 17 kts | 110° |
| 2026-05-08 22:17 | 49.02471 | 2.55577 | 388 ft | 16 kts | 143° |
| 2026-05-08 22:18 | 49.02377 | 2.55618 | 387 ft | 12 kts | 175° |
| 2026-05-08 22:18 | 49.02286 | 2.55628 | 385 ft | 13 kts | 175° |
| 2026-05-08 22:18 | 49.02203 | 2.55638 | 384 ft | 3 kts | 174° |
| 2026-05-08 22:18 | 49.02175 | 2.55641 | 384 ft | 5 kts | 175° |
| 2026-05-08 22:19 | 49.02148 | 2.55645 | 383 ft | 0 kts | 174° |
| 2026-05-08 22:19 | 49.02142 | 2.55646 | 383 ft | 1 kts | 174° |
| 2026-05-08 22:20 | 49.02114 | 2.55649 | 382 ft | 1 kts | 175° |
| 2026-05-08 22:20 | 49.02110 | 2.55649 | 382 ft | 1 kts | 175° |
| 2026-05-08 22:20 | 49.02088 | 2.55651 | 382 ft | 8 kts | 176° |
| 2026-05-08 22:20 | 49.02013 | 2.55658 | 381 ft | 11 kts | 173° |
| 2026-05-08 22:21 | 49.01957 | 2.55667 | 379 ft | 4 kts | 174° |
| 2026-05-08 22:21 | 49.01940 | 2.55669 | 379 ft | 0 kts | 175° |
| 2026-05-08 22:21 | 49.01927 | 2.55670 | 379 ft | 3 kts | 175° |
| 2026-05-08 22:21 | 49.01900 | 2.55673 | 378 ft | 4 kts | 176° |
| 2026-05-08 22:22 | 49.01881 | 2.55686 | 378 ft | 1 kts | 183° |
| 2026-05-08 22:22 | 49.01881 | 2.55640 | 378 ft | 11 kts | 278° |
| 2026-05-08 22:22 | 49.01878 | 2.55447 | 377 ft | 17 kts | 264° |
| 2026-05-08 22:22 | 49.01873 | 2.55357 | 377 ft | 7 kts | 265° |
| 2026-05-08 22:23 | 49.01869 | 2.55269 | 376 ft | 8 kts | 266° |
| 2026-05-08 22:23 | 49.01859 | 2.55167 | 376 ft | 10 kts | 238° |
| 2026-05-08 22:23 | 49.01795 | 2.55132 | 375 ft | 11 kts | 168° |
| 2026-05-08 22:23 | 49.01711 | 2.55144 | 372 ft | 13 kts | 178° |
| 2026-05-08 22:24 | 49.01616 | 2.55157 | 369 ft | 14 kts | 174° |
| 2026-05-08 22:24 | 49.01504 | 2.55169 | 367 ft | 17 kts | 176° |
| 2026-05-08 22:24 | 49.01382 | 2.55204 | 363 ft | 18 kts | 160° |
| 2026-05-08 22:24 | 49.01291 | 2.55217 | 361 ft | 13 kts | 182° |
| 2026-05-08 22:25 | 49.01247 | 2.55273 | 360 ft | 7 kts | 94° |
| 2026-05-08 22:25 | 49.01248 | 2.55318 | 360 ft | 0 kts | 86° |
| 2026-05-08 22:25 | 49.01249 | 2.55345 | 360 ft | 5 kts | 86° |
| 2026-05-08 22:25 | 49.01252 | 2.55405 | 360 ft | 6 kts | 86° |
| 2026-05-08 22:26 | 49.01256 | 2.55502 | 360 ft | 7 kts | 88° |
| 2026-05-08 22:26 | 49.01223 | 2.55531 | 360 ft | 4 kts | 173° |
| 2026-05-08 22:26 | 49.01192 | 2.55537 | 359 ft | 4 kts | 171° |
| 2026-05-08 22:26 | 49.01181 | 2.55538 | 359 ft | 0 kts | 175° |